Time;durP1;ratioP1;P1;durP2;ratioP2;P2;SDS_P1;SDS_P2;PMS_P1;PMS_P2;Temp;Humidity;BMP_temperature;BMP_pressure;BME280_temperature;BME280_humidity;BME280_pressure;Samples;Min_cycle;Max_cycle;Signal;HPM_P1;HPM_P2
2022/05/01 00:02:14;;;;;;;5.32;4.93;;;;;;;7.41;96.98;96019.09;5019128;28;20022;-60
2022/05/01 00:04:39;;;;;;;5.32;4.90;;;;;;;7.40;96.07;96026.09;5021633;28;20109;-61
2022/05/01 00:07:05;;;;;;;4.65;4.35;;;;;;;7.35;95.84;96020.38;5014818;28;20029;-62
2022/05/01 00:09:30;;;;;;;10.13;4.82;;;;;;;7.41;94.90;96019.94;5024996;28;20688;-61
2022/05/01 00:11:56;;;;;;;4.65;4.35;;;;;;;7.31;96.42;96017.19;5018441;28;20029;-61
2022/05/01 00:14:22;;;;;;;5.05;4.63;;;;;;;7.28;95.30;96012.13;5017425;28;20476;-60
2022/05/01 00:16:49;;;;;;;5.03;4.45;;;;;;;7.24;94.96;96018.56;5014501;28;20053;-63
2022/05/01 00:19:14;;;;;;;5.13;4.72;;;;;;;7.28;94.79;96008.69;5013073;28;20022;-60
2022/05/01 00:21:40;;;;;;;5.25;4.75;;;;;;;7.36;94.47;96013.38;5025371;28;20114;-60
2022/05/01 00:24:06;;;;;;;5.22;4.72;;;;;;;7.40;93.70;96007.78;5022845;28;20018;-60
2022/05/01 00:26:32;;;;;;;5.15;4.85;;;;;;;7.38;94.03;96011.47;5017169;28;20074;-60
2022/05/01 00:28:58;;;;;;;5.40;5.00;;;;;;;7.32;94.53;96010.13;5022312;28;20029;-60
2022/05/01 00:31:24;;;;;;;5.50;5.10;;;;;;;7.34;94.11;96005.63;5016268;28;20029;-61
2022/05/01 00:36:33;;;;;;;7.30;6.65;;;;;;;7.33;94.09;96003.13;5021347;28;20044;-60
2022/05/01 00:39:03;;;;;;;8.13;6.57;;;;;;;7.26;94.91;96008.81;5017227;28;20022;-61
2022/05/01 00:41:30;;;;;;;7.80;6.35;;;;;;;7.13;96.97;96002.81;5016603;28;20076;-61
2022/05/01 00:44:08;;;;;;;10.07;6.93;;;;;;;7.09;97.22;96009.22;5016092;28;20692;-60
2022/05/01 00:46:36;;;;;;;6.28;5.78;;;;;;;7.03;96.37;96002.66;5024404;28;20030;-60
2022/05/01 00:49:04;;;;;;;6.93;5.97;;;;;;;6.97;96.50;96001.31;5020436;28;20119;-60
2022/05/01 00:51:31;;;;;;;6.05;5.45;;;;;;;7.02;95.43;95999.19;5028508;28;20026;-60
2022/05/01 00:53:57;;;;;;;6.40;5.90;;;;;;;6.98;96.00;95999.53;5030083;28;20041;-60
2022/05/01 00:56:24;;;;;;;8.38;5.57;;;;;;;6.97;95.66;95995.25;5028183;28;20038;-61
2022/05/01 00:58:50;;;;;;;5.30;4.90;;;;;;;6.99;94.93;95988.13;5024832;28;20054;-61
2022/05/01 01:01:17;;;;;;;5.82;5.32;;;;;;;6.97;94.85;95990.84;5022463;28;20057;-60
2022/05/01 01:03:43;;;;;;;4.90;4.57;;;;;;;6.93;96.33;95991.16;5023287;28;20412;-60
2022/05/01 01:06:08;;;;;;;5.78;5.38;;;;;;;6.90;95.78;95983.53;5019760;28;20026;-61
2022/05/01 01:08:34;;;;;;;5.93;5.43;;;;;;;6.93;96.07;95980.69;5024659;28;20093;-61
2022/05/01 01:10:59;;;;;;;6.97;5.03;;;;;;;6.88;96.14;95988.91;5026209;28;20026;-61
2022/05/01 01:13:26;;;;;;;6.72;6.07;;;;;;;6.84;96.19;95983.06;5025740;28;20072;-60
2022/05/01 01:15:54;;;;;;;5.80;5.22;;;;;;;6.80;97.37;95979.00;5024550;28;20030;-61
2022/05/01 01:18:20;;;;;;;5.82;5.32;;;;;;;6.85;96.13;95984.72;5023529;28;20029;-61
2022/05/01 01:20:45;;;;;;;5.75;5.25;;;;;;;6.83;96.26;95985.75;5019762;28;20026;-60
2022/05/01 01:23:11;;;;;;;5.68;5.18;;;;;;;6.73;97.05;95980.38;5024788;28;20031;-61
2022/05/01 01:25:36;;;;;;;7.72;5.22;;;;;;;6.68;97.05;95985.94;5022716;28;20501;-61
2022/05/01 01:28:05;;;;;;;5.47;5.03;;;;;;;6.62;97.39;95988.16;5024792;28;20145;-61
2022/05/01 01:33:16;;;;;;;5.72;5.28;;;;;;;6.59;97.19;95983.97;5024680;28;20068;-61
2022/05/01 01:35:45;;;;;;;5.22;4.82;;;;;;;6.57;97.91;95981.50;5019929;28;20038;-61
2022/05/01 01:38:10;;;;;;;5.25;4.75;;;;;;;6.49;99.10;95985.59;5024999;28;20028;-61
2022/05/01 01:40:55;;;;;;;5.43;5.00;;;;;;;6.44;98.01;95984.16;5025671;28;20030;-61
2022/05/01 01:43:27;;;;;;;5.37;4.97;;;;;;;6.42;97.91;95988.66;5017174;28;20108;-61
2022/05/01 01:45:54;;;;;;;5.40;5.00;;;;;;;6.29;97.54;95980.81;5024064;28;20291;-61
2022/05/01 01:48:21;;;;;;;6.57;4.43;;;;;;;6.23;97.17;95988.28;5024931;28;20018;-61
2022/05/01 01:51:02;;;;;;;4.90;4.60;;;;;;;6.21;96.46;95991.00;5023831;28;20515;-61
2022/05/01 01:53:29;;;;;;;5.15;4.75;;;;;;;6.19;96.78;95987.66;5021681;28;20063;-61
2022/05/01 01:55:56;;;;;;;4.70;4.40;;;;;;;6.16;96.93;95993.91;5023479;28;20040;-60
2022/05/01 01:58:21;;;;;;;5.30;4.85;;;;;;;6.11;97.46;95988.19;5020712;28;20048;-60
2022/05/01 02:00:47;;;;;;;5.25;4.85;;;;;;;6.15;97.08;95989.63;5023563;28;20389;-60
2022/05/01 02:03:12;;;;;;;5.32;4.63;;;;;;;6.17;96.94;96002.59;5023579;28;20108;-60
2022/05/01 02:05:38;;;;;;;5.47;5.07;;;;;;;6.13;96.92;95993.31;5022748;28;20030;-60
2022/05/01 02:08:07;;;;;;;4.47;4.18;;;;;;;6.09;97.07;95997.09;5025139;28;20108;-60
2022/05/01 02:10:32;;;;;;;4.97;4.57;;;;;;;6.08;97.76;95998.00;5025175;28;20042;-60
2022/05/01 02:13:00;;;;;;;5.55;4.75;;;;;;;6.06;97.06;95998.13;5029199;28;20032;-61
2022/05/01 02:15:30;;;;;;;6.55;4.85;;;;;;;6.07;96.56;95996.34;5015146;28;20030;-60
2022/05/01 02:17:58;;;;;;;5.38;4.95;;;;;;;6.10;95.79;95993.53;5021051;28;20037;-61
2022/05/01 02:20:24;;;;;;;4.90;4.25;;;;;;;6.13;95.94;96001.97;5017747;28;20036;-60
2022/05/01 02:22:50;;;;;;;5.10;4.68;;;;;;;6.11;96.12;95992.59;5022825;28;20040;-60
2022/05/01 02:25:15;;;;;;;5.20;4.80;;;;;;;6.15;95.96;95999.28;5026326;28;20029;-61
2022/05/01 02:27:40;;;;;;;5.95;5.10;;;;;;;6.03;97.51;96000.97;5025646;28;20056;-60
2022/05/01 02:30:08;;;;;;;5.38;4.85;;;;;;;6.04;96.71;95993.94;5017683;28;20041;-60
2022/05/01 02:32:37;;;;;;;4.70;4.40;;;;;;;5.97;97.50;95994.34;5024690;28;20496;-61
2022/05/01 02:35:05;;;;;;;5.40;5.00;;;;;;;5.90;98.06;95992.25;5025851;28;20087;-61
2022/05/01 02:37:30;;;;;;;4.95;4.65;;;;;;;5.86;98.56;95991.66;5019388;28;20034;-60
2022/05/01 02:39:55;;;;;;;5.80;4.57;;;;;;;5.83;98.14;95986.59;5019504;28;20547;-61
2022/05/01 02:42:21;;;;;;;4.35;4.07;;;;;;;5.80;97.72;95984.19;5018991;28;20034;-61
2022/05/01 02:44:46;;;;;;;4.88;4.45;;;;;;;5.80;97.91;95985.06;5021495;28;20025;-60
2022/05/01 02:47:11;;;;;;;5.00;4.60;;;;;;;5.85;97.27;95985.56;5027875;28;20473;-61
2022/05/01 02:49:37;;;;;;;11.55;4.97;;;;;;;5.78;97.70;95988.69;5022325;28;20030;-61
2022/05/01 02:52:03;;;;;;;4.53;4.13;;;;;;;5.78;97.21;95983.47;5015058;28;20037;-60
2022/05/01 02:54:29;;;;;;;4.85;4.45;;;;;;;5.79;96.95;95990.38;5024405;28;20033;-61
2022/05/01 02:56:54;;;;;;;4.57;4.20;;;;;;;5.78;97.67;95986.09;5026146;28;20098;-61
2022/05/01 02:59:20;;;;;;;7.20;6.50;;;;;;;5.73;98.10;95981.16;5025299;28;20041;-60
2022/05/01 03:01:45;;;;;;;6.03;5.50;;;;;;;5.67;98.90;95977.22;5018540;28;20029;-60
2022/05/01 03:04:11;;;;;;;6.80;5.88;;;;;;;5.65;98.29;95976.50;5025027;28;20600;-61
2022/05/01 03:06:37;;;;;;;5.82;5.35;;;;;;;5.61;98.10;95976.78;5027467;28;20029;-60
2022/05/01 03:09:03;;;;;;;6.63;4.85;;;;;;;5.60;97.73;95970.72;5023381;28;20032;-60
2022/05/01 03:11:29;;;;;;;5.28;4.78;;;;;;;5.67;96.99;95976.38;5021124;28;20112;-61
2022/05/01 03:13:54;;;;;;;4.63;4.32;;;;;;;5.69;97.04;95969.25;5027357;28;20555;-61
2022/05/01 03:16:20;;;;;;;5.30;4.90;;;;;;;5.62;98.30;95962.78;5022348;28;20033;-60
2022/05/01 03:24:15;;;;;;;5.38;4.90;;;;;;;5.57;97.86;95971.78;5020976;28;20141;-61
2022/05/01 03:26:41;;;;;;;5.75;4.88;;;;;;;5.54;99.12;95968.53;5024748;28;20932;-61
2022/05/01 03:29:07;;;;;;;5.75;4.95;;;;;;;5.54;98.37;95974.59;5028110;28;20021;-61
2022/05/01 03:31:35;;;;;;;5.28;4.80;;;;;;;5.53;98.00;95972.09;5026654;28;20033;-60
2022/05/01 03:34:03;;;;;;;5.22;4.72;;;;;;;5.50;98.03;95964.47;5014732;28;20034;-60
2022/05/01 03:36:28;;;;;;;4.90;4.40;;;;;;;5.47;98.13;95962.06;5019163;28;20026;-61
2022/05/01 03:38:54;;;;;;;5.03;4.72;;;;;;;5.44;98.37;95961.34;5017263;28;20392;-61
2022/05/01 03:41:19;;;;;;;4.97;4.63;;;;;;;5.39;98.25;95954.75;5025025;28;20025;-61
2022/05/01 03:43:44;;;;;;;4.85;4.55;;;;;;;5.38;98.15;95955.69;5022816;28;20032;-61
2022/05/01 03:46:10;;;;;;;5.20;4.80;;;;;;;5.34;98.63;95960.25;5019504;28;20511;-60
2022/05/01 03:48:35;;;;;;;5.05;4.68;;;;;;;5.30;98.62;95956.19;5017504;28;20034;-61
2022/05/01 03:51:02;;;;;;;5.05;4.68;;;;;;;5.23;98.72;95958.38;5024560;28;20028;-60
2022/05/01 03:53:29;;;;;;;5.10;4.80;;;;;;;5.19;98.52;95961.28;5024356;28;20440;-61
2022/05/01 03:55:55;;;;;;;4.85;4.55;;;;;;;5.20;98.50;95966.41;5029279;28;20100;-61
2022/05/01 03:58:21;;;;;;;5.30;4.90;;;;;;;5.26;97.67;95959.97;5023409;28;20053;-60
2022/05/01 04:00:47;;;;;;;4.88;4.47;;;;;;;5.26;97.54;95963.38;5025271;28;20041;-61
2022/05/01 04:03:17;;;;;;;5.55;4.78;;;;;;;5.29;97.58;95962.34;5024647;28;20026;-60
2022/05/01 04:05:42;;;;;;;4.97;4.63;;;;;;;5.30;97.57;95964.03;5025868;28;20033;-61
2022/05/01 04:08:09;;;;;;;5.07;4.72;;;;;;;5.28;97.87;95960.69;5025100;28;20623;-61
2022/05/01 04:10:41;;;;;;;5.43;4.93;;;;;;;5.30;97.79;95964.88;5020546;28;20528;-61
2022/05/01 04:13:07;;;;;;;7.30;5.13;;;;;;;5.33;97.70;95968.22;5028047;28;20029;-60
2022/05/01 04:15:33;;;;;;;5.50;5.10;;;;;;;5.32;98.67;95962.16;5029977;28;20030;-60
2022/05/01 04:17:59;;;;;;;5.47;5.00;;;;;;;5.25;98.96;95961.72;5024890;28;20029;-60
2022/05/01 04:20:25;;;;;;;5.05;4.70;;;;;;;5.24;99.04;95969.66;5021107;28;20394;-60
2022/05/01 04:22:51;;;;;;;5.00;4.60;;;;;;;5.26;98.96;95968.59;5027082;28;20045;-60
2022/05/01 04:25:19;;;;;;;5.15;4.68;;;;;;;5.27;98.44;95967.66;5020877;28;20088;-60
2022/05/01 04:27:51;;;;;;;5.57;5.22;;;;;;;5.27;99.52;95974.69;5026496;28;20028;-60
2022/05/01 04:30:18;;;;;;;5.47;5.07;;;;;;;5.24;99.37;95965.25;5022950;28;20072;-60
2022/05/01 04:33:06;;;;;;;7.35;4.80;;;;;;;5.27;98.74;95969.47;5025936;28;20445;-60
2022/05/01 04:35:34;;;;;;;5.40;5.00;;;;;;;5.29;98.67;95978.03;5027635;28;20396;-60
2022/05/01 04:38:02;;;;;;;5.57;5.18;;;;;;;5.36;97.79;95971.44;5022800;28;20075;-60
2022/05/01 04:40:34;;;;;;;6.55;5.25;;;;;;;5.37;98.20;95972.28;5022577;28;20022;-61
2022/05/01 04:43:13;;;;;;;5.53;5.03;;;;;;;5.36;99.29;95973.22;5021987;28;20029;-61
2022/05/01 04:45:43;;;;;;;5.45;4.95;;;;;;;5.30;99.64;95975.31;5028079;28;20025;-61
2022/05/01 04:48:10;;;;;;;5.45;5.05;;;;;;;5.25;99.57;95976.56;5023180;28;20056;-61
2022/05/01 04:50:36;;;;;;;5.40;4.80;;;;;;;5.21;99.36;95975.91;5026448;28;20029;-61
2022/05/01 04:53:06;;;;;;;5.32;4.82;;;;;;;5.28;98.79;95978.97;5019254;28;20044;-60
2022/05/01 04:55:32;;;;;;;5.18;4.88;;;;;;;5.30;98.12;95971.88;5024707;28;20377;-61
2022/05/01 04:57:58;;;;;;;5.25;4.85;;;;;;;5.33;97.86;95976.88;5022551;28;20095;-60
2022/05/01 05:00:24;;;;;;;5.40;5.00;;;;;;;5.35;97.75;95975.00;5026408;28;20048;-60
2022/05/01 05:02:52;;;;;;;5.00;4.60;;;;;;;5.37;97.40;95980.13;5023290;28;20037;-60
2022/05/01 05:05:19;;;;;;;5.85;5.35;;;;;;;5.38;98.24;95974.78;5023416;28;20079;-61
2022/05/01 05:07:45;;;;;;;6.30;5.72;;;;;;;5.37;98.93;95974.91;5019341;28;20493;-60
2022/05/01 05:10:11;;;;;;;9.00;6.68;;;;;;;5.39;98.62;95971.22;5020270;28;20034;-61
2022/05/01 05:12:39;;;;;;;6.07;5.53;;;;;;;5.48;97.86;95974.19;5025952;28;20028;-61
2022/05/01 05:15:09;;;;;;;6.93;6.18;;;;;;;5.44;99.47;95978.75;5021997;28;20037;-60
2022/05/01 05:17:36;;;;;;;6.18;5.57;;;;;;;5.43;99.18;95980.56;5021299;28;20037;-61
2022/05/01 05:20:03;;;;;;;5.60;5.20;;;;;;;5.44;98.54;95979.63;5022638;28;20029;-61
2022/05/01 05:22:29;;;;;;;6.28;5.78;;;;;;;5.47;98.73;95977.72;5021797;28;20034;-61
2022/05/01 05:24:54;;;;;;;5.95;5.45;;;;;;;5.51;99.00;95981.81;5023679;28;20172;-61
2022/05/01 05:27:21;;;;;;;6.13;5.53;;;;;;;5.54;98.68;95986.81;5021506;28;20056;-61
2022/05/01 05:29:50;;;;;;;6.70;6.10;;;;;;;5.61;99.66;95987.25;5021475;28;20029;-60
2022/05/01 05:32:16;;;;;;;5.53;5.03;;;;;;;5.72;98.73;95988.19;5022562;28;20164;-61
2022/05/01 05:34:41;;;;;;;6.10;5.68;;;;;;;5.79;98.42;95993.84;5022282;28;20040;-61
2022/05/01 05:37:07;;;;;;;5.80;5.40;;;;;;;5.78;99.97;95988.69;5021676;28;20029;-61
2022/05/01 05:39:32;;;;;;;8.25;5.53;;;;;;;5.87;98.98;95999.38;5024354;28;20026;-61
2022/05/01 05:41:58;;;;;;;9.15;6.15;;;;;;;6.03;97.88;95995.72;5017513;28;20042;-61
2022/05/01 05:44:23;;;;;;;5.47;5.07;;;;;;;6.23;97.67;95998.75;5024312;28;20163;-61
2022/05/01 05:46:49;;;;;;;5.40;5.00;;;;;;;6.44;96.74;95996.38;5021926;28;20477;-61
2022/05/01 05:49:14;;;;;;;6.97;5.60;;;;;;;6.66;95.98;95994.84;5020158;28;20037;-61
2022/05/01 05:51:40;;;;;;;5.65;5.25;;;;;;;6.94;94.31;96006.78;5022844;28;20026;-61
2022/05/01 05:54:05;;;;;;;5.68;5.00;;;;;;;7.09;93.38;95996.97;5023830;28;20045;-60
2022/05/01 05:56:30;;;;;;;5.32;5.03;;;;;;;7.23;92.62;96000.34;5019961;28;20084;-61
2022/05/01 05:58:56;;;;;;;5.82;5.38;;;;;;;7.56;92.33;96004.00;5019589;28;20057;-60
2022/05/01 06:01:21;;;;;;;5.57;5.10;;;;;;;7.80;90.11;96003.94;5023476;28;20049;-60
2022/05/01 06:03:47;;;;;;;6.07;5.68;;;;;;;7.86;88.76;95997.41;5022220;28;20041;-60
2022/05/01 06:06:14;;;;;;;6.15;5.60;;;;;;;8.02;88.20;95999.69;5021083;28;20392;-61
2022/05/01 06:08:39;;;;;;;5.30;4.90;;;;;;;8.05;86.23;96001.22;5026298;28;20033;-60
2022/05/01 06:11:05;;;;;;;4.63;4.25;;;;;;;7.98;85.59;95993.81;5020542;28;20488;-61
2022/05/01 06:13:31;;;;;;;4.72;4.38;;;;;;;7.92;85.52;96002.19;5020281;28;20038;-62
2022/05/01 06:15:57;;;;;;;4.25;3.95;;;;;;;7.77;86.33;95985.84;5017867;28;20120;-61
2022/05/01 06:18:22;;;;;;;4.53;4.10;;;;;;;7.76;86.28;95993.81;5024811;28;20021;-60
2022/05/01 06:20:49;;;;;;;6.22;4.30;;;;;;;7.70;86.34;95990.72;5021528;28;20029;-60
2022/05/01 06:23:15;;;;;;;4.68;4.32;;;;;;;7.64;86.98;95982.47;5019637;28;20124;-61
2022/05/01 06:25:43;;;;;;;4.00;3.70;;;;;;;7.63;86.99;95984.28;5021083;28;20124;-61
2022/05/01 06:28:10;;;;;;;4.30;3.97;;;;;;;7.80;85.69;95993.47;5022656;28;20034;-61
2022/05/01 06:30:38;;;;;;;4.47;3.83;;;;;;;7.89;84.37;95978.81;5026112;28;20033;-60
2022/05/01 06:33:03;;;;;;;4.22;3.90;;;;;;;8.20;82.61;95981.66;5019356;28;20116;-61
2022/05/01 06:35:31;;;;;;;4.40;3.80;;;;;;;8.48;81.36;95984.72;5019592;28;20121;-60
2022/05/01 06:37:59;;;;;;;4.20;3.97;;;;;;;8.91;80.87;95980.50;5022550;28;20029;-60
2022/05/01 06:40:25;;;;;;;3.70;3.40;;;;;;;9.28;80.37;95977.50;5019874;28;20029;-60
2022/05/01 06:42:50;;;;;;;4.43;4.03;;;;;;;9.50;79.04;95972.25;5020472;28;20085;-60
2022/05/01 06:45:16;;;;;;;4.00;3.70;;;;;;;9.67;75.63;95969.03;5021233;28;20407;-60
2022/05/01 06:47:41;;;;;;;4.00;3.75;;;;;;;10.09;76.11;95968.13;5020671;28;20043;-61
2022/05/01 06:50:07;;;;;;;5.53;4.07;;;;;;;10.66;74.16;95969.44;5024757;28;20112;-61
2022/05/01 06:52:32;;;;;;;3.90;3.50;;;;;;;11.41;71.35;95961.84;5023689;28;20025;-60
2022/05/01 06:54:59;;;;;;;4.00;3.70;;;;;;;12.06;67.01;95964.78;5024549;28;20096;-60
2022/05/01 06:57:25;;;;;;;4.88;4.53;;;;;;;12.37;67.61;95960.06;5022004;28;20041;-60
2022/05/01 06:59:52;;;;;;;4.85;4.43;;;;;;;12.89;64.62;95962.13;5019074;28;20467;-60
2022/05/01 07:02:17;;;;;;;4.50;4.18;;;;;;;12.92;65.21;95954.88;5020388;28;20038;-61
2022/05/01 07:04:43;;;;;;;4.18;3.90;;;;;;;13.59;63.59;95954.47;5023057;28;20404;-61
2022/05/01 07:07:08;;;;;;;3.95;3.72;;;;;;;14.14;62.70;95955.97;5018836;28;20732;-60
2022/05/01 07:09:34;;;;;;;5.72;4.30;;;;;;;14.72;61.94;95952.78;5023628;28;20049;-61
2022/05/01 07:11:59;;;;;;;5.35;4.10;;;;;;;14.86;57.89;95957.44;5024718;28;20095;-61
2022/05/01 07:14:25;;;;;;;4.15;3.72;;;;;;;15.01;58.76;95947.00;5022274;28;20045;-60
2022/05/01 07:16:50;;;;;;;4.78;4.38;;;;;;;15.18;58.92;95955.00;5022137;28;20555;-61
2022/05/01 07:19:16;;;;;;;4.20;3.90;;;;;;;15.25;60.00;95947.22;5020180;28;20610;-60
2022/05/01 07:21:42;;;;;;;5.75;4.10;;;;;;;15.54;57.05;95951.19;5021199;28;20397;-60
2022/05/01 07:24:07;;;;;;;4.38;4.07;;;;;;;15.99;55.46;95954.31;5020387;28;20088;-60
2022/05/01 07:26:33;;;;;;;4.63;4.13;;;;;;;16.17;56.48;95954.94;5017007;28;20449;-60
2022/05/01 07:29:05;;;;;;;4.57;4.20;;;;;;;16.51;54.32;95939.72;5024639;28;20037;-60
2022/05/01 07:31:30;;;;;;;4.68;4.28;;;;;;;16.35;55.02;95943.25;5021329;28;20062;-60
2022/05/01 07:33:56;;;;;;;4.03;3.65;;;;;;;16.63;52.19;95947.28;5027816;28;20076;-59
2022/05/01 07:36:23;;;;;;;3.42;3.13;;;;;;;16.56;51.91;95937.34;5028304;28;20041;-59
2022/05/01 07:38:51;;;;;;;5.05;3.70;;;;;;;16.57;52.99;95946.13;5024525;28;20400;-59
2022/05/01 07:41:17;;;;;;;4.10;3.70;;;;;;;16.86;50.89;95944.69;5027995;28;20038;-59
2022/05/01 07:43:44;;;;;;;4.10;3.70;;;;;;;16.95;50.30;95956.91;5026724;28;20030;-59
2022/05/01 07:46:09;;;;;;;5.28;3.85;;;;;;;16.88;51.75;95948.81;5021904;28;20507;-59
2022/05/01 07:48:35;;;;;;;3.80;3.53;;;;;;;16.55;54.20;95943.66;5023974;28;20029;-59
2022/05/01 07:51:01;;;;;;;4.00;3.60;;;;;;;16.76;51.78;95948.38;5024715;28;20033;-59
2022/05/01 07:53:26;;;;;;;4.97;3.53;;;;;;;17.31;50.78;95947.56;5028078;28;20642;-59
2022/05/01 07:55:52;;;;;;;3.40;3.20;;;;;;;16.95;49.54;95943.63;5026998;28;20026;-59
2022/05/01 07:58:20;;;;;;;3.38;3.15;;;;;;;15.16;53.11;95944.56;5026373;28;20467;-60
2022/05/01 08:00:46;;;;;;;4.88;3.17;;;;;;;15.16;53.74;95946.38;5023553;28;20100;-60
2022/05/01 08:05:55;;;;;;;3.83;3.03;;;;;;;16.23;52.07;95942.78;5025781;28;20044;-60
2022/05/01 08:08:21;;;;;;;3.05;2.88;;;;;;;16.43;51.25;95934.41;5023928;28;20030;-60
2022/05/01 08:10:46;;;;;;;4.20;3.15;;;;;;;16.59;50.55;95934.34;5023166;28;20030;-60
2022/05/01 08:13:11;;;;;;;3.88;3.33;;;;;;;17.27;49.54;95936.47;5028355;28;20037;-60
2022/05/01 08:15:37;;;;;;;3.20;3.00;;;;;;;17.22;49.87;95933.47;5024931;28;20502;-60
2022/05/01 08:21:07;;;;;;;3.55;3.10;;;;;;;17.28;47.83;95931.94;5008855;28;20671;-60
2022/05/01 08:23:33;;;;;;;3.10;2.90;;;;;;;16.57;50.14;95931.03;5025209;28;20057;-60
2022/05/01 08:26:05;;;;;;;4.38;3.35;;;;;;;17.40;48.95;95941.19;5020528;28;20022;-60
2022/05/01 08:28:31;;;;;;;3.38;3.13;;;;;;;17.55;47.49;95927.91;5023636;28;20604;-60
2022/05/01 08:30:57;;;;;;;5.32;3.35;;;;;;;17.52;48.05;95933.59;5028496;28;20041;-61
2022/05/01 08:33:22;;;;;;;3.08;2.75;;;;;;;17.72;45.93;95928.56;5023468;28;20457;-60
2022/05/01 08:35:48;;;;;;;2.97;2.55;;;;;;;18.04;45.67;95923.97;5026303;28;20068;-60
2022/05/01 08:38:13;;;;;;;7.05;2.47;;;;;;;19.01;44.32;95920.44;5020980;28;20064;-60
2022/05/01 08:40:40;;;;;;;2.92;2.78;;;;;;;19.40;42.31;95929.00;5022895;28;20033;-60
2022/05/01 08:43:05;;;;;;;3.15;2.95;;;;;;;19.08;43.76;95926.66;5027634;28;20062;-59
2022/05/01 08:45:45;;;;;;;3.20;3.00;;;;;;;18.67;41.79;95928.03;5031614;28;20399;-59
2022/05/01 08:48:24;;;;;;;3.95;2.78;;;;;;;19.31;42.28;95929.16;5022814;28;20038;-59
2022/05/01 08:50:51;;;;;;;3.20;2.78;;;;;;;20.04;40.23;95927.28;5026545;28;20036;-60
2022/05/01 08:53:17;;;;;;;2.88;2.67;;;;;;;19.84;41.33;95924.44;5026751;28;20030;-59
2022/05/01 08:55:44;;;;;;;2.97;2.78;;;;;;;20.31;38.50;95922.06;5023662;28;20040;-59
2022/05/01 08:58:10;;;;;;;2.78;2.60;;;;;;;19.76;41.31;95922.75;5023998;28;20038;-59
2022/05/01 09:00:37;;;;;;;2.83;2.58;;;;;;;20.23;38.73;95923.09;5022559;28;20369;-59
2022/05/01 09:03:04;;;;;;;2.78;2.47;;;;;;;20.46;38.52;95920.09;5025477;28;20791;-59
2022/05/01 09:05:31;;;;;;;3.15;2.95;;;;;;;20.06;38.17;95924.41;5027145;28;20108;-60
2022/05/01 09:07:57;;;;;;;2.80;2.60;;;;;;;19.56;40.99;95919.91;5022766;28;20033;-59
2022/05/01 09:10:26;;;;;;;2.80;2.60;;;;;;;20.43;40.48;95923.16;5021315;28;20120;-60
2022/05/01 09:12:53;;;;;;;2.60;2.40;;;;;;;20.18;40.51;95914.81;5029889;28;20030;-60
2022/05/01 09:15:30;;;;;;;3.00;2.70;;;;;;;20.89;38.24;95913.72;5026482;28;20038;-59
2022/05/01 09:18:16;;;;;;;2.90;2.70;;;;;;;21.02;37.45;95906.72;5021677;28;20030;-60
2022/05/01 09:21:04;;;;;;;2.67;2.47;;;;;;;20.21;39.57;95909.06;5027495;28;20488;-59
2022/05/01 09:23:44;;;;;;;3.17;2.72;;;;;;;20.76;39.16;95905.59;5018052;28;20105;-60
2022/05/01 09:26:12;;;;;;;2.90;2.70;;;;;;;20.95;39.06;95906.72;5021959;28;20040;-60
2022/05/01 09:28:47;;;;;;;3.05;2.75;;;;;;;20.52;37.74;95907.78;5028676;28;20160;-60
2022/05/01 09:31:12;;;;;;;8.25;2.47;;;;;;;21.61;36.06;95902.44;5024644;28;20032;-60
2022/05/01 09:33:39;;;;;;;2.78;2.35;;;;;;;21.36;38.20;95901.41;5022943;28;20472;-60
2022/05/01 09:36:05;;;;;;;4.20;2.30;;;;;;;20.92;39.26;95903.63;5022534;28;20515;-60
2022/05/01 09:38:30;;;;;;;2.85;2.58;;;;;;;20.78;39.72;95908.06;5024091;28;20025;-60
2022/05/01 09:41:00;;;;;;;3.30;2.83;;;;;;;21.23;38.92;95902.22;5028090;28;20116;-61
2022/05/01 09:43:49;;;;;;;3.05;2.30;;;;;;;21.00;38.06;95895.41;5021559;28;20034;-60
2022/05/01 09:46:19;;;;;;;3.38;2.63;;;;;;;21.44;36.57;95902.03;5026874;28;20635;-60
2022/05/01 09:49:03;;;;;;;5.13;2.60;;;;;;;21.57;35.32;95898.53;5024231;28;20021;-60
2022/05/01 09:51:34;;;;;;;2.75;2.30;;;;;;;21.20;37.19;95897.28;5020339;28;20049;-60
2022/05/01 09:54:04;;;;;;;2.85;2.58;;;;;;;21.42;36.51;95893.41;5027022;28;20044;-59
2022/05/01 09:56:54;;;;;;;2.70;2.50;;;;;;;19.84;38.89;95903.88;5019393;28;20032;-60
2022/05/01 09:59:23;;;;;;;3.35;2.22;;;;;;;20.15;40.09;95900.00;5022926;28;20033;-59
2022/05/01 10:01:57;;;;;;;2.92;2.40;;;;;;;21.71;35.16;95893.22;5027650;28;20457;-68
2022/05/01 10:04:23;;;;;;;3.28;2.65;;;;;;;21.36;36.08;95894.22;5022743;28;20064;-69
2022/05/01 10:06:52;;;;;;;3.00;2.80;;;;;;;21.38;36.32;95891.31;5019834;28;20121;-68
2022/05/01 10:09:19;;;;;;;3.67;2.80;;;;;;;19.53;39.27;95890.91;5000492;28;20112;-69
2022/05/01 10:11:47;;;;;;;2.72;2.42;;;;;;;20.39;39.90;95891.69;5019102;28;20037;-69
2022/05/01 10:14:12;;;;;;;4.80;2.97;;;;;;;21.97;34.91;95889.66;5018596;28;20515;-69
2022/05/01 10:16:40;;;;;;;2.65;2.45;;;;;;;21.44;36.88;95890.50;5017262;28;20037;-69
2022/05/01 10:19:06;;;;;;;3.30;2.67;;;;;;;21.32;38.79;95885.78;5023077;28;20035;-68
2022/05/01 10:21:34;;;;;;;3.40;2.65;;;;;;;22.15;35.52;95880.97;5021246;28;20113;-67
2022/05/01 10:24:01;;;;;;;2.15;2.05;;;;;;;21.43;36.46;95881.66;5016028;28;20021;-68
2022/05/01 10:26:34;;;;;;;2.55;2.35;;;;;;;22.07;36.78;95886.53;5025969;28;20037;-68
2022/05/01 10:29:29;;;;;;;2.55;2.35;;;;;;;22.10;34.48;95883.44;5025511;28;20033;-67
2022/05/01 10:32:21;;;;;;;3.15;2.50;;;;;;;22.83;35.11;95876.16;5022055;28;20037;-66
2022/05/01 10:34:57;;;;;;;2.47;2.22;;;;;;;21.82;36.85;95870.34;5024219;28;20435;-67
2022/05/01 10:37:37;;;;;;;2.78;2.58;;;;;;;20.69;35.96;95873.47;5018003;28;20396;-60
2022/05/01 10:40:03;;;;;;;2.45;2.25;;;;;;;20.60;37.99;95869.34;5019785;28;20040;-60
2022/05/01 10:42:33;;;;;;;2.50;2.25;;;;;;;21.74;35.75;95860.66;5020908;28;20030;-60
2022/05/01 10:44:59;;;;;;;2.50;2.30;;;;;;;21.84;34.62;95858.34;5027264;28;20095;-60
2022/05/01 10:47:36;;;;;;;2.55;2.20;;;;;;;22.09;34.33;95854.19;5022662;28;20121;-61
2022/05/01 10:50:08;;;;;;;2.10;2.00;;;;;;;21.29;34.16;95855.91;5020957;28;20021;-60
2022/05/01 10:52:34;;;;;;;6.65;2.50;;;;;;;21.64;35.06;95846.81;5020006;28;20441;-60
2022/05/01 10:55:05;;;;;;;3.38;2.17;;;;;;;21.53;35.72;95841.06;5025194;28;20136;-59
2022/05/01 10:57:31;;;;;;;2.40;2.17;;;;;;;21.76;35.11;95834.47;5024070;28;20128;-59
2022/05/01 11:00:06;;;;;;;2.83;2.45;;;;;;;22.21;34.40;95835.59;5024322;28;20034;-60
2022/05/01 11:02:48;;;;;;;2.17;2.08;;;;;;;22.90;32.88;95835.88;5017680;28;20024;-59
2022/05/01 11:05:42;;;;;;;2.10;2.00;;;;;;;22.52;33.28;95834.03;5015800;28;20124;-59
2022/05/01 11:08:18;;;;;;;2.85;2.50;;;;;;;22.90;30.46;95827.81;5022506;28;20411;-61
2022/05/01 11:10:43;;;;;;;2.63;2.40;;;;;;;23.20;30.37;95821.00;5020749;28;20025;-60
2022/05/01 11:13:14;;;;;;;2.33;2.15;;;;;;;23.89;31.86;95819.16;5018678;28;20536;-60
2022/05/01 11:15:50;;;;;;;3.30;2.35;;;;;;;22.33;32.02;95807.06;5017036;28;20026;-61
2022/05/01 11:18:27;;;;;;;2.58;2.38;;;;;;;22.93;32.39;95805.09;5018747;28;20037;-61
2022/05/01 11:20:53;;;;;;;3.30;2.30;;;;;;;23.24;33.94;95798.03;5023195;28;20034;-62
2022/05/01 11:23:33;;;;;;;2.00;1.90;;;;;;;23.45;31.66;95795.00;5022663;28;20534;-61
2022/05/01 11:26:17;;;;;;;6.55;2.60;;;;;;;23.60;29.77;95793.81;5021486;28;20033;-62
2022/05/01 11:28:52;;;;;;;5.00;2.25;;;;;;;24.30;30.78;95781.06;5020079;28;20030;-60
2022/05/01 11:31:36;;;;;;;2.25;2.05;;;;;;;25.05;27.51;95770.91;5020113;28;20034;-61
2022/05/01 11:34:17;;;;;;;2.40;2.08;;;;;;;24.05;27.94;95779.28;5022543;28;20492;-60
2022/05/01 11:37:03;;;;;;;2.67;2.38;;;;;;;23.74;28.99;95783.75;5019513;28;20057;-60
2022/05/01 11:39:50;;;;;;;1.90;1.80;;;;;;;24.65;27.56;95776.84;5023735;28;20025;-60
2022/05/01 11:42:25;;;;;;;2.15;2.05;;;;;;;25.05;27.75;95770.91;5018651;28;20049;-60
2022/05/01 11:44:51;;;;;;;2.35;1.92;;;;;;;25.50;25.78;95776.81;5018705;28;20025;-60
2022/05/01 11:47:24;;;;;;;2.40;2.10;;;;;;;25.57;24.06;95772.13;5021335;28;20052;-62
2022/05/01 11:49:52;;;;;;;2.25;1.90;;;;;;;25.08;25.06;95767.72;5023052;28;21276;-60
2022/05/01 11:52:18;;;;;;;1.95;1.85;;;;;;;25.44;24.90;95771.28;5019500;28;20929;-61
2022/05/01 11:54:54;;;;;;;2.88;1.75;;;;;;;24.35;26.43;95765.06;5018499;28;20057;-61
2022/05/01 12:02:57;;;;;;;2.40;2.20;;;;;;;24.26;26.26;95752.97;5017949;28;20108;-60
2022/05/01 12:05:22;;;;;;;2.25;2.00;;;;;;;23.34;27.23;95750.06;5017012;28;20034;-60
2022/05/01 12:07:56;;;;;;;4.20;1.88;;;;;;;24.24;27.17;95737.06;5016025;28;20131;-59